Time;durP1;ratioP1;P1;durP2;ratioP2;P2;SDS_P1;SDS_P2;PMS_P1;PMS_P2;Temp;Humidity;BMP_temperature;BMP_pressure;BME280_temperature;BME280_humidity;BME280_pressure;Samples;Min_cycle;Max_cycle;Signal;HPM_P1;HPM_P2
2022/08/31 00:05:10;;;;;;;6.93;1.75;;;;;;;;;;5043016;28;20035;-85
2022/08/31 00:07:35;;;;;;;2.75;1.90;;;;;;;;;;4967201;28;20042;-85
2022/08/31 00:10:12;;;;;;;2.72;1.70;;;;;;;;;;4966005;28;20099;-84
2022/08/31 00:12:42;;;;;;;6.50;1.80;;;;;;;;;;4964391;28;20080;-85
2022/08/31 00:15:09;;;;;;;2.72;1.80;;;;;;;;;;5035771;28;20048;-85
2022/08/31 00:17:35;;;;;;;4.05;1.80;;;;;;;;;;5031673;28;20046;-86
2022/08/31 00:20:01;;;;;;;6.60;2.08;;;;;;;;;;4965668;28;20127;-85
2022/08/31 00:22:26;;;;;;;3.47;1.90;;;;;;;;;;4963549;28;20047;-84
2022/08/31 00:24:51;;;;;;;3.88;1.80;;;;;;;;;;4965667;28;20401;-84
2022/08/31 00:27:16;;;;;;;5.90;2.10;;;;;;;;;;4966737;28;20043;-84
2022/08/31 00:29:42;;;;;;;4.22;2.10;;;;;;;;;;4965511;28;20062;-84
2022/08/31 00:32:07;;;;;;;4.47;1.95;;;;;;;;;;4966730;28;20520;-85
2022/08/31 00:34:32;;;;;;;5.95;2.05;;;;;;;;;;4966898;28;20118;-84
2022/08/31 00:36:59;;;;;;;2.88;1.85;;;;;;;;;;4966553;28;20030;-85
2022/08/31 00:39:25;;;;;;;7.38;2.00;;;;;;;;;;4963394;28;20045;-85
2022/08/31 00:41:50;;;;;;;4.05;2.22;;;;;;;;;;4966782;28;20034;-86
2022/08/31 00:44:16;;;;;;;4.20;2.00;;;;;;;;;;4965494;28;20031;-83
2022/08/31 00:46:42;;;;;;;4.30;2.10;;;;;;;;;;5000865;28;20045;-84
2022/08/31 00:49:13;;;;;;;3.03;2.25;;;;;;;;;;4964379;28;20044;-85
2022/08/31 00:51:43;;;;;;;3.85;2.10;;;;;;;;;;4965695;28;20026;-85
2022/08/31 00:54:11;;;;;;;9.85;2.35;;;;;;;;;;4943259;28;20457;-85
2022/08/31 00:56:38;;;;;;;4.97;2.65;;;;;;;;;;4941401;28;20054;-84
2022/08/31 00:59:04;;;;;;;4.45;2.00;;;;;;;;;;4934112;28;20039;-85
2022/08/31 01:01:29;;;;;;;3.63;2.33;;;;;;;;;;4951816;28;20063;-85
2022/08/31 01:03:56;;;;;;;5.28;2.33;;;;;;;;;;4939689;28;20112;-85
2022/08/31 01:06:22;;;;;;;4.40;2.20;;;;;;;;;;4947367;28;20428;-84
2022/08/31 01:08:48;;;;;;;3.33;2.10;;;;;;;;;;4947215;28;20043;-83
2022/08/31 01:11:15;;;;;;;6.40;2.35;;;;;;;;;;4949270;28;20054;-85
2022/08/31 01:13:43;;;;;;;4.18;2.10;;;;;;;;;;4986267;28;20041;-84
2022/08/31 01:16:15;;;;;;;2.70;2.05;;;;;;;;;;5055191;28;20617;-85
2022/08/31 01:18:42;;;;;;;3.92;2.22;;;;;;;;;;5072044;28;20036;-85
2022/08/31 01:21:37;;;;;;;3.20;2.25;;;;;;;;;;5069812;28;20032;-84
2022/08/31 01:24:03;;;;;;;3.20;2.20;;;;;;;;;;4969881;28;20043;-85
2022/08/31 01:26:31;;;;;;;3.10;1.90;;;;;;;;;;4968241;28;20423;-83
2022/08/31 01:29:00;;;;;;;3.40;2.13;;;;;;;;;;4967458;28;20074;-84
2022/08/31 01:31:39;;;;;;;8.68;2.38;;;;;;;;;;4969261;28;20089;-84
2022/08/31 01:34:06;;;;;;;4.28;2.22;;;;;;;;;;4968237;28;20042;-86
2022/08/31 01:36:34;;;;;;;5.68;2.30;;;;;;;;;;4968816;28;20030;-84
2022/08/31 01:39:00;;;;;;;4.18;2.45;;;;;;;;;;4969246;28;20534;-85
2022/08/31 01:41:25;;;;;;;6.97;2.60;;;;;;;;;;4968209;28;20043;-84
2022/08/31 01:43:51;;;;;;;5.18;2.72;;;;;;;;;;4965917;28;20031;-84
2022/08/31 01:46:17;;;;;;;3.22;2.20;;;;;;;;;;4988295;28;20024;-84
2022/08/31 01:48:45;;;;;;;3.53;2.40;;;;;;;;;;4990833;28;20605;-84
2022/08/31 01:51:13;;;;;;;3.92;2.13;;;;;;;;;;4968094;28;20434;-83
2022/08/31 01:53:40;;;;;;;4.03;2.25;;;;;;;;;;4969089;28;20042;-83
2022/08/31 01:56:22;;;;;;;3.45;2.55;;;;;;;;;;4948032;28;20038;-84
2022/08/31 01:58:48;;;;;;;4.00;2.80;;;;;;;;;;4968531;28;20034;-82
2022/08/31 02:01:14;;;;;;;3.83;2.30;;;;;;;;;;4967832;28;20043;-83
2022/08/31 02:03:39;;;;;;;4.20;2.50;;;;;;;;;;4993195;28;20080;-85
2022/08/31 02:06:12;;;;;;;4.00;2.42;;;;;;;;;;4966466;28;20051;-85
2022/08/31 02:08:38;;;;;;;3.72;2.72;;;;;;;;;;4995026;28;20032;-85
2022/08/31 02:11:07;;;;;;;4.90;2.50;;;;;;;;;;4981194;28;20531;-84
2022/08/31 02:13:34;;;;;;;5.22;2.60;;;;;;;;;;4948261;28;20533;-84
2022/08/31 02:16:00;;;;;;;4.70;2.88;;;;;;;;;;4959579;28;20688;-83
2022/08/31 02:18:25;;;;;;;3.85;2.70;;;;;;;;;;5050940;28;20031;-84
2022/08/31 02:20:51;;;;;;;5.88;2.50;;;;;;;;;;5046194;28;20044;-84
2022/08/31 02:23:16;;;;;;;2.97;2.45;;;;;;;;;;4995981;28;20055;-84
2022/08/31 02:25:42;;;;;;;7.00;2.75;;;;;;;;;;4968952;28;20039;-85
2022/08/31 02:28:11;;;;;;;3.60;2.47;;;;;;;;;;4960747;28;20393;-85
2022/08/31 02:30:37;;;;;;;6.22;2.63;;;;;;;;;;4950469;28;20400;-84
2022/08/31 02:33:02;;;;;;;5.38;2.83;;;;;;;;;;4949412;28;20122;-84
2022/08/31 02:35:28;;;;;;;4.13;2.33;;;;;;;;;;4947951;28;20032;-83
2022/08/31 02:37:53;;;;;;;4.78;2.47;;;;;;;;;;4962666;28;20042;-84
2022/08/31 02:40:18;;;;;;;5.70;2.55;;;;;;;;;;4966410;28;20031;-85
2022/08/31 02:42:44;;;;;;;4.90;3.00;;;;;;;;;;4968764;28;20403;-84
2022/08/31 02:45:09;;;;;;;4.68;2.60;;;;;;;;;;4966168;28;20113;-85
2022/08/31 02:47:35;;;;;;;4.13;2.80;;;;;;;;;;5057266;28;20705;-85
2022/08/31 02:50:03;;;;;;;12.82;3.30;;;;;;;;;;4983339;28;20110;-84
2022/08/31 02:52:28;;;;;;;4.10;2.78;;;;;;;;;;4964805;28;20078;-83
2022/08/31 02:54:53;;;;;;;5.70;3.22;;;;;;;;;;4965833;28;20057;-82
2022/08/31 02:57:19;;;;;;;5.47;2.80;;;;;;;;;;4967439;28;20145;-84
2022/08/31 02:59:44;;;;;;;4.00;2.70;;;;;;;;;;4992296;28;20035;-85
2022/08/31 03:02:10;;;;;;;4.05;2.90;;;;;;;;;;4954476;28;20427;-85
2022/08/31 03:04:35;;;;;;;4.43;2.88;;;;;;;;;;5046118;28;20036;-84
2022/08/31 03:07:00;;;;;;;6.50;2.90;;;;;;;;;;5005250;28;20057;-85
2022/08/31 03:09:26;;;;;;;4.25;3.08;;;;;;;;;;5021273;28;20034;-84
2022/08/31 03:11:51;;;;;;;3.78;3.20;;;;;;;;;;4967783;28;20046;-84
2022/08/31 03:14:17;;;;;;;5.03;3.08;;;;;;;;;;5000961;28;20542;-85
2022/08/31 03:16:42;;;;;;;7.30;3.05;;;;;;;;;;5046061;28;20039;-84
2022/08/31 03:19:08;;;;;;;4.63;3.30;;;;;;;;;;4949104;28;20035;-84
2022/08/31 03:21:33;;;;;;;4.47;3.15;;;;;;;;;;4966343;28;20106;-84
2022/08/31 03:23:59;;;;;;;3.42;2.58;;;;;;;;;;4967783;28;20042;-85
2022/08/31 03:26:24;;;;;;;6.57;3.45;;;;;;;;;;4964847;28;20074;-85
2022/08/31 03:28:49;;;;;;;5.40;3.25;;;;;;;;;;4966428;28;20038;-85
2022/08/31 03:31:15;;;;;;;5.82;3.42;;;;;;;;;;4968051;28;20054;-83
2022/08/31 03:33:40;;;;;;;11.23;3.13;;;;;;;;;;4966881;28;20031;-84
2022/08/31 03:36:06;;;;;;;5.88;3.33;;;;;;;;;;4967710;28;20481;-85
2022/08/31 03:38:31;;;;;;;7.03;3.30;;;;;;;;;;4967792;28;20034;-83
2022/08/31 03:40:57;;;;;;;5.25;3.13;;;;;;;;;;4967212;28;20034;-84
2022/08/31 03:43:22;;;;;;;7.53;3.25;;;;;;;;;;4965079;28;20035;-84
2022/08/31 03:45:48;;;;;;;5.57;3.50;;;;;;;;;;4965871;28;20592;-83
2022/08/31 03:48:14;;;;;;;4.63;3.28;;;;;;;;;;4964965;28;20035;-84
2022/08/31 03:50:41;;;;;;;6.10;3.28;;;;;;;;;;4965453;28;20043;-84
2022/08/31 03:53:08;;;;;;;8.40;3.47;;;;;;;;;;4966420;28;20058;-85
2022/08/31 03:55:37;;;;;;;6.03;3.78;;;;;;;;;;4962422;28;20039;-85
2022/08/31 03:58:03;;;;;;;4.72;3.13;;;;;;;;;;4970565;28;20440;-84
2022/08/31 04:00:30;;;;;;;6.85;3.58;;;;;;;;;;4966718;28;20034;-85
2022/08/31 04:02:58;;;;;;;6.75;3.60;;;;;;;;;;4975843;28;20111;-84
2022/08/31 04:05:33;;;;;;;5.70;3.50;;;;;;;;;;5068541;28;20041;-84
2022/08/31 04:07:58;;;;;;;6.28;4.32;;;;;;;;;;5067235;28;20163;-85
2022/08/31 04:10:24;;;;;;;5.47;3.50;;;;;;;;;;5068395;28;20127;-85
2022/08/31 04:12:49;;;;;;;4.53;3.40;;;;;;;;;;5049633;28;20130;-83
2022/08/31 04:15:16;;;;;;;5.80;3.35;;;;;;;;;;5015709;28;20027;-84
2022/08/31 04:17:44;;;;;;;4.93;3.17;;;;;;;;;;4965154;28;20066;-84
2022/08/31 04:20:10;;;;;;;5.93;3.17;;;;;;;;;;4966557;28;20063;-84
2022/08/31 04:22:35;;;;;;;5.90;3.30;;;;;;;;;;4982565;28;20186;-84
2022/08/31 04:25:01;;;;;;;5.40;3.35;;;;;;;;;;4985154;28;20035;-84
2022/08/31 04:27:26;;;;;;;5.88;3.70;;;;;;;;;;4975811;28;20030;-83
2022/08/31 04:29:51;;;;;;;5.97;3.53;;;;;;;;;;4965644;28;20416;-84
2022/08/31 04:32:17;;;;;;;6.40;3.72;;;;;;;;;;4965858;28;20051;-83
2022/08/31 04:34:42;;;;;;;6.78;3.97;;;;;;;;;;4958616;28;20035;-83
2022/08/31 04:37:09;;;;;;;5.93;3.80;;;;;;;;;;4959301;28;20035;-83
2022/08/31 04:39:35;;;;;;;6.13;4.00;;;;;;;;;;4967439;28;20062;-83
2022/08/31 04:42:00;;;;;;;6.13;3.83;;;;;;;;;;4965440;28;20070;-85
2022/08/31 04:44:26;;;;;;;5.97;3.67;;;;;;;;;;4969034;28;20038;-84
2022/08/31 04:46:51;;;;;;;5.90;3.60;;;;;;;;;;4970044;28;20035;-84
2022/08/31 04:49:17;;;;;;;6.22;4.30;;;;;;;;;;4999634;28;20037;-82
2022/08/31 04:51:43;;;;;;;4.85;3.72;;;;;;;;;;5072838;28;20037;-84
2022/08/31 04:54:12;;;;;;;5.30;3.90;;;;;;;;;;5051524;28;20549;-83
2022/08/31 04:56:41;;;;;;;6.55;3.80;;;;;;;;;;4988530;28;20039;-85
2022/08/31 04:59:10;;;;;;;5.57;3.70;;;;;;;;;;4968624;28;20049;-84
2022/08/31 05:01:38;;;;;;;5.25;3.75;;;;;;;;;;4968960;28;20089;-85
2022/08/31 05:04:05;;;;;;;6.07;3.58;;;;;;;;;;5026004;28;20600;-84
2022/08/31 05:06:32;;;;;;;7.13;4.22;;;;;;;;;;5060078;28;20167;-85
2022/08/31 05:09:01;;;;;;;12.75;3.88;;;;;;;;;;4969695;28;20050;-84
2022/08/31 05:11:27;;;;;;;8.07;4.05;;;;;;;;;;4968293;28;20091;-84
2022/08/31 05:13:55;;;;;;;6.13;3.55;;;;;;;;;;4986435;28;20032;-83
2022/08/31 05:16:21;;;;;;;7.70;4.47;;;;;;;;;;4980727;28;20046;-84
2022/08/31 05:18:48;;;;;;;4.53;3.70;;;;;;;;;;4968299;28;20515;-85
2022/08/31 05:21:28;;;;;;;7.57;4.20;;;;;;;;;;4968722;28;20164;-84
2022/08/31 05:23:56;;;;;;;5.72;3.88;;;;;;;;;;4967767;28;20046;-84
2022/08/31 05:26:27;;;;;;;7.25;3.70;;;;;;;;;;4967956;28;20038;-84
2022/08/31 05:28:53;;;;;;;6.20;4.20;;;;;;;;;;4968227;28;20035;-86
2022/08/31 05:31:18;;;;;;;4.63;3.65;;;;;;;;;;4968059;28;20085;-84
2022/08/31 05:33:44;;;;;;;6.03;4.20;;;;;;;;;;4964868;28;20520;-83
2022/08/31 05:36:11;;;;;;;4.68;3.60;;;;;;;;;;4952228;28;20397;-83
2022/08/31 05:38:37;;;;;;;10.30;4.03;;;;;;;;;;4967742;28;20043;-83
2022/08/31 05:41:04;;;;;;;7.28;4.35;;;;;;;;;;4965661;28;20067;-83
2022/08/31 05:43:31;;;;;;;11.43;4.10;;;;;;;;;;4968068;28;20083;-83
2022/08/31 05:45:56;;;;;;;7.65;4.18;;;;;;;;;;4968752;28;20023;-83
2022/08/31 05:48:22;;;;;;;7.60;4.07;;;;;;;;;;4965420;28;20463;-82
2022/08/31 05:50:47;;;;;;;7.32;4.32;;;;;;;;;;4957131;28;20109;-84
2022/08/31 05:53:13;;;;;;;12.52;4.43;;;;;;;;;;4967608;28;20047;-82
2022/08/31 05:55:38;;;;;;;7.53;3.97;;;;;;;;;;4973436;28;20046;-84
2022/08/31 05:58:04;;;;;;;7.05;4.18;;;;;;;;;;4967166;28;20042;-83
2022/08/31 06:00:31;;;;;;;6.03;4.25;;;;;;;;;;4969290;28;20078;-82
2022/08/31 06:02:56;;;;;;;7.28;4.05;;;;;;;;;;4972451;28;20033;-83
2022/08/31 06:05:22;;;;;;;7.05;4.57;;;;;;;;;;4962585;28;20049;-82
2022/08/31 06:07:47;;;;;;;7.10;3.70;;;;;;;;;;4985867;28;20069;-83
2022/08/31 06:10:14;;;;;;;11.52;4.40;;;;;;;;;;4987398;28;20039;-83
2022/08/31 06:12:45;;;;;;;8.52;3.97;;;;;;;;;;4969425;28;20547;-83
2022/08/31 06:15:11;;;;;;;6.90;4.20;;;;;;;;;;4964934;28;20047;-83
2022/08/31 06:17:36;;;;;;;5.90;3.38;;;;;;;;;;4966534;28;20529;-83
2022/08/31 06:20:05;;;;;;;13.70;5.25;;;;;;;;;;4965176;28;20708;-83
2022/08/31 06:22:32;;;;;;;6.43;4.15;;;;;;;;;;4968532;28;20065;-83
2022/08/31 06:24:58;;;;;;;7.85;3.58;;;;;;;;;;4966940;28;20030;-82
2022/08/31 06:27:26;;;;;;;7.90;4.47;;;;;;;;;;4966812;28;20121;-83
2022/08/31 06:29:51;;;;;;;7.30;4.43;;;;;;;;;;4967556;28;20073;-81
2022/08/31 06:32:18;;;;;;;7.70;4.15;;;;;;;;;;4965841;28;20583;-82
2022/08/31 06:34:44;;;;;;;10.73;4.60;;;;;;;;;;4966093;28;20081;-83
2022/08/31 06:37:11;;;;;;;6.78;4.80;;;;;;;;;;4966243;28;20050;-83
2022/08/31 06:39:37;;;;;;;10.43;4.57;;;;;;;;;;4967837;28;20661;-82
2022/08/31 06:42:03;;;;;;;11.20;4.63;;;;;;;;;;4961151;28;20157;-82
2022/08/31 06:44:29;;;;;;;7.13;4.38;;;;;;;;;;4957963;28;20460;-82
2022/08/31 06:46:55;;;;;;;5.18;3.95;;;;;;;;;;4969798;28;20046;-81
2022/08/31 06:49:21;;;;;;;8.68;4.55;;;;;;;;;;4978818;28;20042;-81
2022/08/31 06:51:48;;;;;;;7.47;4.30;;;;;;;;;;4970634;28;20031;-82
2022/08/31 06:54:15;;;;;;;7.43;5.00;;;;;;;;;;4960479;28;20035;-82
2022/08/31 06:56:41;;;;;;;6.57;4.28;;;;;;;;;;4972792;28;20106;-82
2022/08/31 06:59:07;;;;;;;9.65;5.03;;;;;;;;;;4968697;28;20039;-82
2022/08/31 07:01:35;;;;;;;8.13;4.50;;;;;;;;;;4979700;28;20531;-82
2022/08/31 07:04:03;;;;;;;9.38;5.03;;;;;;;;;;4972788;28;20034;-82
2022/08/31 07:06:36;;;;;;;11.65;5.65;;;;;;;;;;4960242;28;20162;-82
2022/08/31 07:09:05;;;;;;;7.53;4.70;;;;;;;;;;4963852;28;20701;-81
2022/08/31 07:11:34;;;;;;;8.55;4.63;;;;;;;;;;4993515;28;20119;-81
2022/08/31 07:14:00;;;;;;;7.80;5.10;;;;;;;;;;5084480;28;20029;-82
2022/08/31 07:16:27;;;;;;;11.63;4.75;;;;;;;;;;5015370;28;20116;-82
2022/08/31 07:18:54;;;;;;;8.10;5.28;;;;;;;;;;5017474;28;20122;-82
2022/08/31 07:21:22;;;;;;;8.10;4.50;;;;;;;;;;4984570;28;20042;-82
2022/08/31 07:23:49;;;;;;;7.95;4.90;;;;;;;;;;4989450;28;20035;-81
2022/08/31 07:26:21;;;;;;;5.80;4.22;;;;;;;;;;4963018;28;20042;-82
2022/08/31 07:28:52;;;;;;;7.37;4.60;;;;;;;;;;4989163;28;20524;-82
2022/08/31 07:31:22;;;;;;;7.57;4.78;;;;;;;;;;4990969;28;20362;-82
2022/08/31 07:33:57;;;;;;;7.57;4.93;;;;;;;;;;4990483;28;20031;-82
2022/08/31 07:36:24;;;;;;;7.72;4.60;;;;;;;;;;4958877;28;20031;-82
2022/08/31 07:44:20;;;;;;;6.78;4.68;;;;;;;;;;4962867;28;20057;-81
2022/08/31 07:46:46;;;;;;;10.30;4.72;;;;;;;;;;4970304;28;20038;-82
2022/08/31 07:49:13;;;;;;;8.13;4.57;;;;;;;;;;4972833;28;20042;-82
2022/08/31 07:51:42;;;;;;;8.13;4.78;;;;;;;;;;4967842;28;20535;-81
2022/08/31 07:54:09;;;;;;;10.98;4.72;;;;;;;;;;5001243;28;20058;-82
2022/08/31 07:56:35;;;;;;;7.05;4.72;;;;;;;;;;4957958;28;20035;-83
2022/08/31 07:59:02;;;;;;;9.70;4.80;;;;;;;;;;4962568;28;20772;-82
2022/08/31 08:01:31;;;;;;;8.55;4.75;;;;;;;;;;4985375;28;20053;-82
2022/08/31 08:04:00;;;;;;;8.00;4.65;;;;;;;;;;4973134;28;20629;-82
2022/08/31 08:06:27;;;;;;;11.10;5.80;;;;;;;;;;4961861;28;20093;-82
2022/08/31 08:08:54;;;;;;;7.07;4.55;;;;;;;;;;4960547;28;20084;-82
2022/08/31 08:11:20;;;;;;;8.98;5.35;;;;;;;;;;4961545;28;20108;-82
2022/08/31 08:13:47;;;;;;;12.38;5.20;;;;;;;;;;4975448;28;20596;-81
2022/08/31 08:16:13;;;;;;;8.75;4.80;;;;;;;;;;4991219;28;20527;-82
2022/08/31 08:18:39;;;;;;;8.35;5.18;;;;;;;;;;4962534;28;20023;-82
2022/08/31 08:21:05;;;;;;;7.43;4.40;;;;;;;;;;4980531;28;20117;-83
2022/08/31 08:23:30;;;;;;;7.90;4.90;;;;;;;;;;4964919;28;20063;-83
2022/08/31 08:25:59;;;;;;;7.50;4.53;;;;;;;;;;4955621;28;20120;-81
2022/08/31 08:28:29;;;;;;;7.72;4.88;;;;;;;;;;4965193;28;20073;-82
2022/08/31 08:30:59;;;;;;;8.18;5.10;;;;;;;;;;4960856;28;20058;-82
2022/08/31 08:33:27;;;;;;;12.68;5.35;;;;;;;;;;4956534;28;20038;-83
2022/08/31 08:35:58;;;;;;;9.38;5.05;;;;;;;;;;4965007;28;20042;-82
2022/08/31 08:38:24;;;;;;;7.43;5.22;;;;;;;;;;4968486;28;20105;-82
2022/08/31 08:40:50;;;;;;;7.88;5.40;;;;;;;;;;4975110;28;20042;-82
2022/08/31 08:43:18;;;;;;;8.25;5.18;;;;;;;;;;4963104;28;20125;-82
2022/08/31 08:45:49;;;;;;;6.85;4.72;;;;;;;;;;4960779;28;20057;-84
2022/08/31 08:48:19;;;;;;;9.23;5.25;;;;;;;;;;4979525;28;20491;-82
2022/08/31 08:50:45;;;;;;;7.57;4.75;;;;;;;;;;4960289;28;20130;-81
2022/08/31 08:53:12;;;;;;;10.40;4.80;;;;;;;;;;4971339;28;20129;-83
2022/08/31 08:55:40;;;;;;;5.85;4.00;;;;;;;;;;4977059;28;20039;-82
2022/08/31 08:58:10;;;;;;;7.07;4.53;;;;;;;;;;4972183;28;20038;-82
2022/08/31 09:00:37;;;;;;;6.53;4.43;;;;;;;;;;4989248;28;20377;-82
2022/08/31 09:03:21;;;;;;;8.15;4.93;;;;;;;;;;5002376;28;20059;-86
2022/08/31 09:06:01;;;;;;;7.75;4.80;;;;;;;;;;5004005;28;20547;-87
2022/08/31 09:08:31;;;;;;;8.65;4.80;;;;;;;;;;4966892;28;20047;-82
2022/08/31 09:11:16;;;;;;;10.02;5.15;;;;;;;;;;4973265;28;20042;-83
2022/08/31 09:13:42;;;;;;;11.00;5.18;;;;;;;;;;4984205;28;20046;-82
2022/08/31 09:16:46;;;;;;;10.85;4.95;;;;;;;;;;4968690;28;20100;-82
2022/08/31 09:19:17;;;;;;;10.85;4.90;;;;;;;;;;4960192;28;20080;-82
2022/08/31 09:21:56;;;;;;;8.18;4.68;;;;;;;;;;4962664;28;20041;-82
2022/08/31 09:24:26;;;;;;;8.02;5.00;;;;;;;;;;4961959;28;20064;-82
2022/08/31 09:27:17;;;;;;;9.60;5.15;;;;;;;;;;4962441;28;20031;-82
2022/08/31 09:29:45;;;;;;;9.13;4.68;;;;;;;;;;4963568;28;20031;-82
2022/08/31 09:32:22;;;;;;;9.57;5.30;;;;;;;;;;4980573;28;20110;-83
2022/08/31 09:35:03;;;;;;;6.78;4.60;;;;;;;;;;5012310;28;20037;-82
2022/08/31 09:38:08;;;;;;;6.63;4.55;;;;;;;;;;4968467;28;20045;-83
2022/08/31 09:40:48;;;;;;;9.38;5.03;;;;;;;;;;4960064;28;20420;-83
2022/08/31 09:43:39;;;;;;;8.13;4.50;;;;;;;;;;4965062;28;20039;-83
2022/08/31 09:46:10;;;;;;;7.05;5.25;;;;;;;;;;4965742;28;20043;-82
2022/08/31 09:48:44;;;;;;;9.73;5.15;;;;;;;;;;4964886;28;20052;-82
2022/08/31 09:51:20;;;;;;;8.40;4.75;;;;;;;;;;4964941;28;20088;-83
2022/08/31 09:56:30;;;;;;;7.05;4.45;;;;;;;;;;4968318;28;20046;-82
2022/08/31 09:59:01;;;;;;;10.45;5.00;;;;;;;;;;4963230;28;20039;-83
2022/08/31 10:01:45;;;;;;;8.95;4.93;;;;;;;;;;4967042;28;20046;-83
2022/08/31 10:04:16;;;;;;;6.40;4.32;;;;;;;;;;4979815;28;20043;-83
2022/08/31 10:07:05;;;;;;;9.73;4.85;;;;;;;;;;4965643;28;20043;-83
2022/08/31 10:09:54;;;;;;;8.88;4.78;;;;;;;;;;4974813;28;20109;-82
2022/08/31 10:12:26;;;;;;;7.10;4.47;;;;;;;;;;4948477;28;20039;-83
2022/08/31 10:15:01;;;;;;;6.75;4.18;;;;;;;;;;5002339;28;20581;-83
2022/08/31 10:17:36;;;;;;;7.43;4.32;;;;;;;;;;4967523;28;20478;-83
2022/08/31 10:20:14;;;;;;;8.32;4.78;;;;;;;;;;4963576;28;20412;-84
2022/08/31 10:22:45;;;;;;;6.22;4.40;;;;;;;;;;4959935;28;20081;-83
2022/08/31 10:25:37;;;;;;;11.88;4.45;;;;;;;;;;4962744;28;20152;-83
2022/08/31 10:28:08;;;;;;;8.73;4.90;;;;;;;;;;4961069;28;20922;-83
2022/08/31 10:30:43;;;;;;;7.13;4.22;;;;;;;;;;4965956;28;20057;-83
2022/08/31 10:33:18;;;;;;;8.82;4.72;;;;;;;;;;4964721;28;20043;-82
2022/08/31 10:35:57;;;;;;;9.55;4.40;;;;;;;;;;4961200;28;20104;-83
2022/08/31 10:38:31;;;;;;;7.90;4.57;;;;;;;;;;4983000;28;20130;-84
2022/08/31 10:41:01;;;;;;;7.15;4.45;;;;;;;;;;4958409;28;20043;-84
2022/08/31 10:43:37;;;;;;;8.15;5.20;;;;;;;;;;4962461;28;20038;-83
2022/08/31 10:46:04;;;;;;;6.93;4.68;;;;;;;;;;4973415;28;20054;-83
2022/08/31 10:48:31;;;;;;;8.23;4.57;;;;;;;;;;4967105;28;20058;-82
2022/08/31 10:51:19;;;;;;;14.32;4.90;;;;;;;;;;4964958;28;20485;-85
2022/08/31 10:53:56;;;;;;;8.00;4.47;;;;;;;;;;4968864;28;20039;-84
2022/08/31 10:56:49;;;;;;;13.25;4.28;;;;;;;;;;4960716;28;20591;-82
2022/08/31 10:59:36;;;;;;;9.00;4.70;;;;;;;;;;4960611;28;20085;-84
2022/08/31 11:02:41;;;;;;;12.88;5.32;;;;;;;;;;4964189;28;20070;-84
2022/08/31 11:05:25;;;;;;;8.68;5.10;;;;;;;;;;4968600;28;20031;-83
2022/08/31 11:07:57;;;;;;;10.15;5.25;;;;;;;;;;4957305;28;20051;-83
2022/08/31 11:10:47;;;;;;;7.30;4.53;;;;;;;;;;4960385;28;20559;-87
2022/08/31 11:13:38;;;;;;;11.70;4.72;;;;;;;;;;4976081;28;20038;-84
2022/08/31 11:16:27;;;;;;;11.30;4.70;;;;;;;;;;4964048;28;20055;-82
2022/08/31 11:19:06;;;;;;;18.42;4.80;;;;;;;;;;4953925;28;20038;-82
2022/08/31 11:21:53;;;;;;;6.22;4.45;;;;;;;;;;4954971;28;20444;-84
2022/08/31 11:24:29;;;;;;;10.60;4.68;;;;;;;;;;4964008;28;20050;-87
2022/08/31 11:27:24;;;;;;;7.22;4.03;;;;;;;;;;4965937;28;20522;-86
2022/08/31 11:30:10;;;;;;;8.00;4.25;;;;;;;;;;4965573;28;20031;-86
2022/08/31 11:32:46;;;;;;;9.63;5.10;;;;;;;;;;4967076;28;20051;-82
2022/08/31 11:35:14;;;;;;;6.97;4.47;;;;;;;;;;4956533;28;20929;-86
2022/08/31 11:37:54;;;;;;;9.85;4.28;;;;;;;;;;4962211;28;20039;-86
2022/08/31 11:40:42;;;;;;;9.52;4.38;;;;;;;;;;4965184;28;20045;-86
2022/08/31 11:43:34;;;;;;;6.70;4.38;;;;;;;;;;4967136;28;20035;-86
2022/08/31 11:46:24;;;;;;;12.48;4.82;;;;;;;;;;4954590;28;20050;-86
2022/08/31 11:48:55;;;;;;;6.57;4.00;;;;;;;;;;4946467;28;20035;-85
2022/08/31 11:51:41;;;;;;;6.65;4.30;;;;;;;;;;4963623;28;20049;-86
2022/08/31 11:54:36;;;;;;;6.55;4.68;;;;;;;;;;4955099;28;20617;-85
2022/08/31 11:57:04;;;;;;;6.50;4.07;;;;;;;;;;4960223;28;20035;-85
2022/08/31 11:59:40;;;;;;;9.30;4.18;;;;;;;;;;5036507;28;20047;-85
2022/08/31 12:02:18;;;;;;;9.15;4.22;;;;;;;;;;4958399;28;20038;-84
2022/08/31 12:04:52;;;;;;;5.35;4.47;;;;;;;;;;4977102;28;20048;-86
2022/08/31 12:07:23;;;;;;;6.40;4.40;;;;;;;;;;4946876;28;20480;-84
2022/08/31 12:10:18;;;;;;;11.38;4.28;;;;;;;;;;4955300;28;20033;-84
2022/08/31 12:13:21;;;;;;;8.80;4.07;;;;;;;;;;4963921;28;20103;-85
2022/08/31 12:16:16;;;;;;;9.82;4.28;;;;;;;;;;4957223;28;20255;-85
2022/08/31 12:18:54;;;;;;;7.65;4.30;;;;;;;;;;4965866;28;20085;-84
2022/08/31 12:25:17;;;;;;;5.82;4.13;;;;;;;;;;4967074;28;20514;-85
2022/08/31 12:27:53;;;;;;;8.48;4.43;;;;;;;;;;4965698;28;20046;-85
2022/08/31 12:30:22;;;;;;;8.80;4.03;;;;;;;;;;4956740;28;20041;-85
2022/08/31 12:33:10;;;;;;;6.90;4.13;;;;;;;;;;4960345;28;20611;-85
2022/08/31 12:35:35;;;;;;;6.28;3.80;;;;;;;;;;4956747;28;20047;-87
2022/08/31 12:38:08;;;;;;;6.53;4.38;;;;;;;;;;4967447;28;20050;-86
2022/08/31 12:40:40;;;;;;;9.43;4.35;;;;;;;;;;4967409;28;20043;-86
2022/08/31 12:43:15;;;;;;;8.77;4.05;;;;;;;;;;4967165;28;20066;-86
2022/08/31 12:45:59;;;;;;;5.97;4.22;;;;;;;;;;4962398;28;20031;-84
2022/08/31 12:48:36;;;;;;;7.35;4.45;;;;;;;;;;4978094;28;20137;-86
2022/08/31 12:51:17;;;;;;;7.45;4.07;;;;;;;;;;4962527;28;20035;-86
2022/08/31 12:53:57;;;;;;;7.35;4.18;;;;;;;;;;4962732;28;20058;-84
2022/08/31 12:56:29;;;;;;;8.73;4.50;;;;;;;;;;4946548;28;20047;-84
2022/08/31 12:59:03;;;;;;;6.85;4.53;;;;;;;;;;4959197;28;20121;-84
2022/08/31 13:01:29;;;;;;;7.28;4.68;;;;;;;;;;4979428;28;20581;-86
2022/08/31 13:04:00;;;;;;;6.93;4.57;;;;;;;;;;4951537;28;20110;-87
2022/08/31 13:06:32;;;;;;;7.88;4.82;;;;;;;;;;4953345;28;20527;-88
2022/08/31 13:08:59;;;;;;;6.97;4.93;;;;;;;;;;4964296;28;20746;-85
2022/08/31 13:11:30;;;;;;;9.48;5.28;;;;;;;;;;4949221;28;20100;-86
2022/08/31 13:14:27;;;;;;;8.43;5.03;;;;;;;;;;4973398;28;20395;-86
2022/08/31 13:17:09;;;;;;;9.25;5.25;;;;;;;;;;4967077;28;20042;-85
2022/08/31 13:19:35;;;;;;;8.27;5.30;;;;;;;;;;4966130;28;20035;-85
2022/08/31 13:22:15;;;;;;;7.70;5.35;;;;;;;;;;5013668;28;20044;-85
2022/08/31 13:24:43;;;;;;;8.07;5.90;;;;;;;;;;5070538;28;20020;-84
2022/08/31 13:27:16;;;;;;;7.03;5.50;;;;;;;;;;5025016;28;20047;-86
2022/08/31 13:29:45;;;;;;;9.77;6.28;;;;;;;;;;4962468;28;20039;-88
2022/08/31 13:32:33;;;;;;;9.05;6.32;;;;;;;;;;4958848;28;20453;-85
2022/08/31 13:35:08;;;;;;;14.27;6.63;;;;;;;;;;4973801;28;20534;-86
2022/08/31 13:37:40;;;;;;;11.77;7.45;;;;;;;;;;4985648;28;20606;-85
2022/08/31 13:40:10;;;;;;;12.68;6.70;;;;;;;;;;4986663;28;20068;-86
2022/08/31 13:42:41;;;;;;;15.50;7.63;;;;;;;;;;4986710;28;20071;-87
2022/08/31 13:45:26;;;;;;;12.52;7.57;;;;;;;;;;4968463;28;20039;-84
2022/08/31 13:48:04;;;;;;;12.45;7.00;;;;;;;;;;4997462;28;20038;-86
2022/08/31 13:50:54;;;;;;;14.25;7.90;;;;;;;;;;4963754;28;20626;-85
2022/08/31 13:53:38;;;;;;;14.95;7.97;;;;;;;;;;4968638;28;20055;-86
2022/08/31 13:59:22;;;;;;;14.88;8.20;;;;;;;;;;4951737;28;20791;-84
2022/08/31 14:02:11;;;;;;;15.15;8.35;;;;;;;;;;4950990;28;20055;-85
2022/08/31 14:04:42;;;;;;;16.67;9.70;;;;;;;;;;4953378;28;20051;-88
2022/08/31 14:07:19;;;;;;;14.30;8.70;;;;;;;;;;4965452;28;20138;-85
2022/08/31 14:09:47;;;;;;;17.63;8.50;;;;;;;;;;4967254;28;20038;-86
2022/08/31 14:12:36;;;;;;;13.27;7.55;;;;;;;;;;4968192;28;20480;-85
2022/08/31 14:15:16;;;;;;;12.45;8.07;;;;;;;;;;5032526;28;20037;-85
2022/08/31 14:17:57;;;;;;;14.38;8.60;;;;;;;;;;5004785;28;20134;-85
2022/08/31 14:20:38;;;;;;;15.05;8.15;;;;;;;;;;4961702;28;20071;-85
2022/08/31 14:23:25;;;;;;;14.32;7.75;;;;;;;;;;4966016;28;20065;-84
2022/08/31 14:26:11;;;;;;;12.98;8.23;;;;;;;;;;4965317;28;20504;-86
2022/08/31 14:28:39;;;;;;;11.35;7.00;;;;;;;;;;4965394;28;20043;-86
2022/08/31 14:31:31;;;;;;;12.70;8.05;;;;;;;;;;4967045;28;20591;-86
2022/08/31 14:34:18;;;;;;;11.50;7.70;;;;;;;;;;4967042;28;20031;-86
2022/08/31 14:36:53;;;;;;;13.77;8.38;;;;;;;;;;4966391;28;20031;-86
2022/08/31 14:39:20;;;;;;;13.88;8.13;;;;;;;;;;4965269;28;20158;-85
2022/08/31 14:41:45;;;;;;;13.00;8.48;;;;;;;;;;4980815;28;20085;-84
2022/08/31 14:44:12;;;;;;;12.52;8.00;;;;;;;;;;4966574;28;20062;-85
2022/08/31 14:46:39;;;;;;;12.43;8.45;;;;;;;;;;4963741;28;20045;-86
2022/08/31 14:49:06;;;;;;;12.02;8.45;;;;;;;;;;4965643;28;20042;-86
2022/08/31 14:51:32;;;;;;;12.57;8.18;;;;;;;;;;4965481;28;20023;-86
2022/08/31 14:53:59;;;;;;;11.35;7.43;;;;;;;;;;4981853;28;20057;-86
2022/08/31 14:56:31;;;;;;;14.15;7.80;;;;;;;;;;4965312;28;20039;-85
2022/08/31 14:59:01;;;;;;;11.68;7.35;;;;;;;;;;4967947;28;20114;-87
2022/08/31 15:01:28;;;;;;;10.73;7.88;;;;;;;;;;4963501;28;20039;-87
2022/08/31 15:03:54;;;;;;;11.85;7.25;;;;;;;;;;4965722;28;20408;-87
2022/08/31 15:06:19;;;;;;;9.02;5.82;;;;;;;;;;4967567;28;20054;-86
2022/08/31 15:08:47;;;;;;;10.38;6.20;;;;;;;;;;4963046;28;20462;-85
2022/08/31 15:11:15;;;;;;;7.55;5.20;;;;;;;;;;4966646;28;20035;-86
2022/08/31 15:13:41;;;;;;;9.52;5.68;;;;;;;;;;4976425;28;20031;-86
2022/08/31 15:16:11;;;;;;;13.20;5.80;;;;;;;;;;5029295;28;20039;-84
2022/08/31 15:18:41;;;;;;;8.18;4.90;;;;;;;;;;4964463;28;20667;-85
2022/08/31 15:21:08;;;;;;;7.40;5.00;;;;;;;;;;4965523;28;20390;-85
2022/08/31 15:23:34;;;;;;;8.43;4.68;;;;;;;;;;4966791;28;20027;-85